createdAt,value
2023-03-18T05:54:05.770Z,4.03
2023-03-18T05:57:09.287Z,4.20
2023-03-18T06:00:13.444Z,4.63
2023-03-18T06:03:17.114Z,4.03
2023-03-18T06:06:19.793Z,4.57
2023-03-18T06:09:24.002Z,4.30
2023-03-18T06:12:28.501Z,3.88
2023-03-18T06:15:32.236Z,4.43
2023-03-18T06:18:35.201Z,3.75
2023-03-18T06:21:38.498Z,3.80
2023-03-18T06:24:42.518Z,4.50
2023-03-18T06:27:45.345Z,4.45
2023-03-18T06:30:48.029Z,3.85
2023-03-18T06:33:50.839Z,4.25
2023-03-18T06:36:53.339Z,3.95
2023-03-18T06:39:57.277Z,4.30
2023-03-18T06:42:59.726Z,4.47
2023-03-18T06:46:02.734Z,4.72
2023-03-18T06:49:05.401Z,3.80
2023-03-18T06:52:07.882Z,3.72
2023-03-18T06:55:12.325Z,3.78
2023-03-18T06:58:15.551Z,4.57
2023-03-18T07:01:18.158Z,4.53
2023-03-18T07:04:20.857Z,4.55
2023-03-18T07:07:24.666Z,4.47
2023-03-18T07:10:31.048Z,4.57
2023-03-18T07:13:34.545Z,4.55
2023-03-18T07:16:37.093Z,3.83
2023-03-18T07:19:39.773Z,4.68
2023-03-18T07:22:42.375Z,4.10
2023-03-18T07:25:46.338Z,4.32
2023-03-18T07:28:49.057Z,4.88
2023-03-18T07:31:51.682Z,3.85
2023-03-18T07:34:54.340Z,4.22
2023-03-18T07:37:57.124Z,4.88
2023-03-18T07:41:00.954Z,4.38
2023-03-18T07:44:03.428Z,4.38
2023-03-18T07:47:06.112Z,4.43
2023-03-18T07:50:09.970Z,4.22
2023-03-18T07:53:14.079Z,4.32
2023-03-18T07:56:19.041Z,4.65
2023-03-18T07:59:21.806Z,4.25
2023-03-18T08:02:25.370Z,4.57
2023-03-18T08:05:28.072Z,4.55
2023-03-18T08:08:30.553Z,5.00
2023-03-18T08:11:34.376Z,6.00
2023-03-18T08:14:37.272Z,4.75
2023-03-18T08:17:39.979Z,4.93
2023-03-18T08:20:42.491Z,4.80
2023-03-18T08:23:45.082Z,4.43
2023-03-18T08:26:48.877Z,4.13
2023-03-18T08:29:51.362Z,4.57
2023-03-18T08:32:53.974Z,4.80
2023-03-18T08:35:57.952Z,4.15
2023-03-18T08:39:00.787Z,4.53
2023-03-18T08:42:05.494Z,4.10
2023-03-18T08:45:09.606Z,4.07
2023-03-18T08:48:13.186Z,4.57
2023-03-18T08:51:16.771Z,4.40
2023-03-18T08:54:21.214Z,4.55
2023-03-18T08:57:27.778Z,4.47
2023-03-18T09:00:30.394Z,4.63
2023-03-18T09:03:33.739Z,4.40
2023-03-18T09:06:36.447Z,4.35
2023-03-18T09:09:43.916Z,4.15
2023-03-18T09:12:49.880Z,4.75
2023-03-18T09:15:52.910Z,4.10
2023-03-18T09:18:55.462Z,4.82
2023-03-18T09:21:59.166Z,3.80
2023-03-18T09:25:01.796Z,4.70
2023-03-18T09:28:06.249Z,4.30
2023-03-18T09:31:08.962Z,4.53
2023-03-18T09:34:13.502Z,4.35
2023-03-18T09:37:16.402Z,4.15
2023-03-18T09:40:25.747Z,4.30
2023-03-18T09:43:44.791Z,4.60
2023-03-18T09:47:04.276Z,4.10
2023-03-18T09:50:21.117Z,4.43
2023-03-18T09:53:27.610Z,4.10
2023-03-18T09:56:34.626Z,4.22
2023-03-18T09:59:43.380Z,3.83
2023-03-18T10:02:49.307Z,4.68
2023-03-18T10:05:56.712Z,4.18
2023-03-18T10:09:05.446Z,4.30
2023-03-18T10:12:16.773Z,4.32
2023-03-18T10:15:27.594Z,3.83
2023-03-18T10:18:32.989Z,4.83
2023-03-18T10:21:43.965Z,4.47
2023-03-18T10:24:54.271Z,4.60
2023-03-18T10:28:31.122Z,4.35
2023-03-18T10:31:50.018Z,5.00
2023-03-18T10:35:03.972Z,3.80
2023-03-18T10:38:17.092Z,4.28
2023-03-18T10:41:25.334Z,4.57
2023-03-18T10:44:32.466Z,4.10
2023-03-18T10:47:42.998Z,4.38
2023-03-18T10:50:52.532Z,4.63
2023-03-18T10:54:00.955Z,4.20
2023-03-18T10:57:03.566Z,4.55
2023-03-18T11:00:26.429Z,4.65
2023-03-18T11:03:34.598Z,5.00
2023-03-18T11:06:42.552Z,4.32
2023-03-18T11:09:46.164Z,4.63
2023-03-18T11:12:51.929Z,4.03
2023-03-18T11:15:57.080Z,5.45
2023-03-18T11:19:07.072Z,4.72
2023-03-18T11:22:20.366Z,4.80
2023-03-18T11:25:26.605Z,4.22
2023-03-18T11:28:30.582Z,4.57
2023-03-18T11:31:34.016Z,3.92
2023-03-18T11:39:00.164Z,4.53
2023-03-18T11:42:02.717Z,5.28
2023-03-18T11:45:20.243Z,6.00
2023-03-18T11:48:36.994Z,5.45
2023-03-18T11:51:47.689Z,5.07
2023-03-18T11:55:14.442Z,4.80
2023-03-18T11:58:43.767Z,4.90
2023-03-18T12:02:00.275Z,4.70
2023-03-18T12:05:29.343Z,5.22
2023-03-18T12:08:45.031Z,6.68
2023-03-18T12:12:00.694Z,5.80
2023-03-18T12:15:13.625Z,6.40
2023-03-18T12:18:31.271Z,5.35
2023-03-18T12:21:47.712Z,5.80
2023-03-18T12:24:59.499Z,4.93
2023-03-18T12:28:07.723Z,5.15
2023-03-18T12:31:45.412Z,5.32
2023-03-18T12:35:22.326Z,4.55
2023-03-18T12:38:46.812Z,4.10
2023-03-18T12:42:01.110Z,4.43
2023-03-18T12:45:12.588Z,4.70
2023-03-18T12:48:20.761Z,4.40
2023-03-18T12:51:30.500Z,3.75
2023-03-18T12:54:37.630Z,4.15
2023-03-18T12:57:45.292Z,4.13
2023-03-18T13:00:55.416Z,3.83
2023-03-18T13:04:05.059Z,3.75
2023-03-18T13:07:17.272Z,3.70
2023-03-18T13:10:22.508Z,3.97
2023-03-18T13:13:27.761Z,3.67
2023-03-18T13:16:33.549Z,3.72
2023-03-18T13:19:37.635Z,3.78
2023-03-18T13:23:03.653Z,3.38
2023-03-18T13:26:15.247Z,3.67
2023-03-18T13:32:48.585Z,3.08
2023-03-18T13:36:06.861Z,3.25
2023-03-18T13:39:22.552Z,2.72
2023-03-18T13:42:28.659Z,3.65
2023-03-18T13:45:33.669Z,3.75
2023-03-18T13:48:37.725Z,3.17
2023-03-18T13:51:50.888Z,3.40
2023-03-18T13:54:53.818Z,2.45
2023-03-18T13:57:58.469Z,2.80
2023-03-18T14:01:40.332Z,3.28
2023-03-18T14:07:50.923Z,3.10
2023-03-18T14:11:38.322Z,2.97
2023-03-18T14:14:55.368Z,2.92
2023-03-18T14:17:59.093Z,3.13
2023-03-18T14:21:08.051Z,3.22
2023-03-18T14:24:13.533Z,2.70
2023-03-18T14:27:20.300Z,3.47
2023-03-18T14:30:46.746Z,2.70
2023-03-18T14:33:59.564Z,3.58
2023-03-18T14:37:27.619Z,3.42
2023-03-18T14:40:35.936Z,3.50
2023-03-18T14:43:44.212Z,3.42
2023-03-18T14:46:49.761Z,3.05
2023-03-18T14:49:57.494Z,3.28
2023-03-18T14:53:06.184Z,3.33
2023-03-18T14:56:18.422Z,3.70
2023-03-18T14:59:25.591Z,3.58
2023-03-18T15:02:30.802Z,3.30
2023-03-18T15:05:37.272Z,2.83
2023-03-18T15:08:49.798Z,2.47
2023-03-18T15:11:52.264Z,3.08
2023-03-18T15:14:55.244Z,2.92
2023-03-18T15:17:57.670Z,2.70
2023-03-18T15:21:03.972Z,2.95
2023-03-18T15:24:09.482Z,3.08
2023-03-18T15:27:16.065Z,2.72
2023-03-18T15:30:27.642Z,2.85
2023-03-18T15:33:35.285Z,3.45
2023-03-18T15:36:42.818Z,3.60
2023-03-18T15:39:46.688Z,3.10
2023-03-18T15:42:50.307Z,3.47
2023-03-18T15:45:55.197Z,3.58
2023-03-18T15:48:59.459Z,3.20
2023-03-18T15:52:03.354Z,3.03
2023-03-18T15:55:29.175Z,2.78
2023-03-18T15:58:37.201Z,2.40
2023-03-18T16:01:41.459Z,3.22
2023-03-18T16:04:45.951Z,2.90
2023-03-18T16:07:48.934Z,2.80
2023-03-18T16:10:55.988Z,3.13
2023-03-18T16:13:59.805Z,3.55
2023-03-18T16:17:02.626Z,3.08
2023-03-18T16:20:17.723Z,3.00
2023-03-18T16:23:21.131Z,2.75
2023-03-18T16:26:24.873Z,3.22
2023-03-18T16:29:30.752Z,2.33
2023-03-18T16:32:33.354Z,2.63
2023-03-18T16:35:36.449Z,2.65
2023-03-18T16:38:41.094Z,2.28
2023-03-18T16:41:45.132Z,2.13
2023-03-18T16:44:47.597Z,2.47
2023-03-18T16:47:52.029Z,2.60
2023-03-18T16:50:56.818Z,2.72
2023-03-18T16:53:59.937Z,2.45
2023-03-18T16:57:05.339Z,2.50
2023-03-18T17:00:19.342Z,2.30
2023-03-18T17:03:22.134Z,1.98
2023-03-18T17:06:24.543Z,2.30
2023-03-18T17:09:28.143Z,2.60
2023-03-18T17:12:32.092Z,2.15
2023-03-18T17:15:37.566Z,2.83
2023-03-18T17:18:40.080Z,2.30
2023-03-18T17:21:42.544Z,2.33
2023-03-18T17:24:45.043Z,2.50
2023-03-18T17:27:52.319Z,1.92
2023-03-18T17:30:55.074Z,2.47
2023-03-18T17:33:57.503Z,2.40
2023-03-18T17:36:59.995Z,2.13
2023-03-18T17:40:02.516Z,2.88
2023-03-18T17:43:06.773Z,2.22
2023-03-18T17:46:09.734Z,3.03
2023-03-18T17:49:12.641Z,2.95
2023-03-18T17:52:19.413Z,2.80
2023-03-18T17:55:24.331Z,3.60
2023-03-18T17:58:31.146Z,11.15
2023-03-18T18:01:33.595Z,5.05
2023-03-18T18:04:36.765Z,5.10
2023-03-18T18:07:39.224Z,6.07
2023-03-18T18:10:41.661Z,5.60
2023-03-18T18:13:45.915Z,5.38
2023-03-18T18:16:48.838Z,4.68
2023-03-18T18:19:51.300Z,4.15
2023-03-18T18:22:56.687Z,4.72
